Aviation Digital Data Service (ADDS)

Output produced by METARs form (2121 UTC 01 December 2021)
found at http://www.aviationweather.gov/metar/data/
 
METAR text: ZPPP 012100Z VRB01MPS 9999 SCT020 BKN040 09/07 Q1026 NOSIG
Conditions at: ZPPP (KUNMING/WUJIABA , CN) observed 2100 UTC 01 December 2021
Temperature: 9.0°C (48°F)
Dewpoint: 7.0°C (45°F) [RH = 87%]
Pressure (altimeter): 30.30 inches Hg (1026.0 mb)
Winds: variable direction winds at 2 MPH (2 knots; 1.0 m/s)
Visibility: 6 or more miles (10+ km)
Ceiling: 4000 feet AGL
Clouds: scattered clouds at 2000 feet AGL
broken clouds at 4000 feet AGL
Weather: no significant weather observed at this time

METAR text: ZPPP 012000Z 01002MPS 9999 SCT020 BKN040 09/07 Q1026 NOSIG
Conditions at: ZPPP (KUNMING/WUJIABA , CN) observed 2000 UTC 01 December 2021
Temperature: 9.0°C (48°F)
Dewpoint: 7.0°C (45°F) [RH = 87%]
Pressure (altimeter): 30.30 inches Hg (1026.0 mb)
Winds: from the N (10 degrees) at 5 MPH (4 knots; 2.1 m/s)
Visibility: 6 or more miles (10+ km)
Ceiling: 4000 feet AGL
Clouds: scattered clouds at 2000 feet AGL
broken clouds at 4000 feet AGL
Weather: no significant weather observed at this time

METAR text: ZPPP 011900Z 05002MPS 9999 FEW020 BKN040 09/07 Q1026 NOSIG
Conditions at: ZPPP (KUNMING/WUJIABA , CN) observed 1900 UTC 01 December 2021
Temperature: 9.0°C (48°F)
Dewpoint: 7.0°C (45°F) [RH = 87%]
Pressure (altimeter): 30.30 inches Hg (1026.0 mb)
Winds: from the NE (50 degrees) at 5 MPH (4 knots; 2.1 m/s)
Visibility: 6 or more miles (10+ km)
Ceiling: 4000 feet AGL
Clouds: few clouds at 2000 feet AGL
broken clouds at 4000 feet AGL
Weather: no significant weather observed at this time

METAR text: ZPPP 011800Z 35002MPS 9999 FEW020 BKN040 09/07 Q1026 NOSIG
Conditions at: ZPPP (KUNMING/WUJIABA , CN) observed 1800 UTC 01 December 2021
Temperature: 9.0°C (48°F)
Dewpoint: 7.0°C (45°F) [RH = 87%]
Pressure (altimeter): 30.30 inches Hg (1026.0 mb)
Winds: from the N (350 degrees) at 5 MPH (4 knots; 2.1 m/s)
Visibility: 6 or more miles (10+ km)
Ceiling: 4000 feet AGL
Clouds: few clouds at 2000 feet AGL
broken clouds at 4000 feet AGL
Weather: no significant weather observed at this time

METAR text: ZPPP 011700Z 04003MPS 9999 FEW026 BKN040 09/07 Q1026 NOSIG
Conditions at: ZPPP (KUNMING/WUJIABA , CN) observed 1700 UTC 01 December 2021
Temperature: 9.0°C (48°F)
Dewpoint: 7.0°C (45°F) [RH = 87%]
Pressure (altimeter): 30.30 inches Hg (1026.0 mb)
Winds: from the NE (40 degrees) at 7 MPH (6 knots; 3.1 m/s)
Visibility: 6 or more miles (10+ km)
Ceiling: 4000 feet AGL
Clouds: few clouds at 2600 feet AGL
broken clouds at 4000 feet AGL
Weather: no significant weather observed at this time

METAR text: ZPPP 011600Z 26003MPS 9999 FEW026 BKN040 11/06 Q1026 NOSIG
Conditions at: ZPPP (KUNMING/WUJIABA , CN) observed 1600 UTC 01 December 2021
Temperature: 11.0°C (52°F)
Dewpoint: 6.0°C (43°F) [RH = 71%]
Pressure (altimeter): 30.30 inches Hg (1026.0 mb)
Winds: from the W (260 degrees) at 7 MPH (6 knots; 3.1 m/s)
Visibility: 6 or more miles (10+ km)
Ceiling: 4000 feet AGL
Clouds: few clouds at 2600 feet AGL
broken clouds at 4000 feet AGL
Weather: no significant weather observed at this time

METAR text: ZPPP 011500Z VRB01MPS 9999 FEW026 BKN040 11/06 Q1026 NOSIG
Conditions at: ZPPP (KUNMING/WUJIABA , CN) observed 1500 UTC 01 December 2021
Temperature: 11.0°C (52°F)
Dewpoint: 6.0°C (43°F) [RH = 71%]
Pressure (altimeter): 30.30 inches Hg (1026.0 mb)
Winds: variable direction winds at 2 MPH (2 knots; 1.0 m/s)
Visibility: 6 or more miles (10+ km)
Ceiling: 4000 feet AGL
Clouds: few clouds at 2600 feet AGL
broken clouds at 4000 feet AGL
Weather: no significant weather observed at this time

METAR text: ZPPP 011400Z 22003MPS 9999 FEW026 BKN040 11/06 Q1026 NOSIG
Conditions at: ZPPP (KUNMING/WUJIABA , CN) observed 1400 UTC 01 December 2021
Temperature: 11.0°C (52°F)
Dewpoint: 6.0°C (43°F) [RH = 71%]
Pressure (altimeter): 30.30 inches Hg (1026.0 mb)
Winds: from the SW (220 degrees) at 7 MPH (6 knots; 3.1 m/s)
Visibility: 6 or more miles (10+ km)
Ceiling: 4000 feet AGL
Clouds: few clouds at 2600 feet AGL
broken clouds at 4000 feet AGL
Weather: no significant weather observed at this time

METAR text: ZPPP 011300Z VRB01MPS 9999 FEW026 BKN040 11/07 Q1025 NOSIG
Conditions at: ZPPP (KUNMING/WUJIABA , CN) observed 1300 UTC 01 December 2021
Temperature: 11.0°C (52°F)
Dewpoint: 7.0°C (45°F) [RH = 76%]
Pressure (altimeter): 30.27 inches Hg (1025.0 mb)
Winds: variable direction winds at 2 MPH (2 knots; 1.0 m/s)
Visibility: 6 or more miles (10+ km)
Ceiling: 4000 feet AGL
Clouds: few clouds at 2600 feet AGL
broken clouds at 4000 feet AGL
Weather: no significant weather observed at this time

METAR text: ZPPP 011200Z 18002MPS 9999 FEW026 BKN040 12/06 Q1025 NOSIG
Conditions at: ZPPP (KUNMING/WUJIABA , CN) observed 1200 UTC 01 December 2021
Temperature: 12.0°C (54°F)
Dewpoint: 6.0°C (43°F) [RH = 67%]
Pressure (altimeter): 30.27 inches Hg (1025.0 mb)
Winds: from the S (180 degrees) at 5 MPH (4 knots; 2.1 m/s)
Visibility: 6 or more miles (10+ km)
Ceiling: 4000 feet AGL
Clouds: few clouds at 2600 feet AGL
broken clouds at 4000 feet AGL
Weather: no significant weather observed at this time

METAR text: ZPPP 011100Z 28003MPS 230V300 9999 FEW026 BKN040 13/06 Q1024 NOSIG
Conditions at: ZPPP (KUNMING/WUJIABA , CN) observed 1100 UTC 01 December 2021
Temperature: 13.0°C (55°F)
Dewpoint: 6.0°C (43°F) [RH = 62%]
Pressure (altimeter): 30.24 inches Hg (1024.0 mb)
Winds: from the W (280 degrees) at 7 MPH (6 knots; 3.1 m/s)
Visibility: 6 or more miles (10+ km)
Ceiling: 4000 feet AGL
Clouds: few clouds at 2600 feet AGL
broken clouds at 4000 feet AGL
Weather: no significant weather observed at this time

METAR text: ZPPP 011000Z 25004MPS 9999 SCT026 BKN040 13/05 Q1024 NOSIG
Conditions at: ZPPP (KUNMING/WUJIABA , CN) observed 1000 UTC 01 December 2021
Temperature: 13.0°C (55°F)
Dewpoint: 5.0°C (41°F) [RH = 58%]
Pressure (altimeter): 30.24 inches Hg (1024.0 mb)
Winds: from the WSW (250 degrees) at 9 MPH (8 knots; 4.1 m/s)
Visibility: 6 or more miles (10+ km)
Ceiling: 4000 feet AGL
Clouds: scattered clouds at 2600 feet AGL
broken clouds at 4000 feet AGL
Weather: no significant weather observed at this time

METAR text: ZPPP 010900Z 26005MPS 9999 SCT026 BKN040 14/05 Q1024 BECMG TL1040 18003MPS
Conditions at: ZPPP (KUNMING/WUJIABA , CN) observed 0900 UTC 01 December 2021
Temperature: 14.0°C (57°F)
Dewpoint: 5.0°C (41°F) [RH = 55%]
Pressure (altimeter): 30.24 inches Hg (1024.0 mb)
Winds: from the W (260 degrees) at 12 MPH (10 knots; 5.1 m/s)
Visibility: 6 or more miles (10+ km)
Ceiling: 4000 feet AGL
Clouds: scattered clouds at 2600 feet AGL
broken clouds at 4000 feet AGL
Weather: no significant weather observed at this time

METAR text: ZPPP 010800Z 24005MPS 9999 SCT026 BKN040 15/05 Q1024 NOSIG
Conditions at: ZPPP (KUNMING/WUJIABA , CN) observed 0800 UTC 01 December 2021
Temperature: 15.0°C (59°F)
Dewpoint: 5.0°C (41°F) [RH = 51%]
Pressure (altimeter): 30.24 inches Hg (1024.0 mb)
Winds: from the WSW (240 degrees) at 12 MPH (10 knots; 5.1 m/s)
Visibility: 6 or more miles (10+ km)
Ceiling: 4000 feet AGL
Clouds: scattered clouds at 2600 feet AGL
broken clouds at 4000 feet AGL
Weather: no significant weather observed at this time

METAR text: ZPPP 010700Z 22006MPS 9999 SCT026 BKN040 15/05 Q1024 NOSIG
Conditions at: ZPPP (KUNMING/WUJIABA , CN) observed 0700 UTC 01 December 2021
Temperature: 15.0°C (59°F)
Dewpoint: 5.0°C (41°F) [RH = 51%]
Pressure (altimeter): 30.24 inches Hg (1024.0 mb)
Winds: from the SW (220 degrees) at 14 MPH (12 knots; 6.2 m/s)
Visibility: 6 or more miles (10+ km)
Ceiling: 4000 feet AGL
Clouds: scattered clouds at 2600 feet AGL
broken clouds at 4000 feet AGL
Weather: no significant weather observed at this time

METAR text: ZPPP 010600Z 24005MPS 9999 SCT026 BKN040 14/05 Q1025 NOSIG
Conditions at: ZPPP (KUNMING/WUJIABA , CN) observed 0600 UTC 01 December 2021
Temperature: 14.0°C (57°F)
Dewpoint: 5.0°C (41°F) [RH = 55%]
Pressure (altimeter): 30.27 inches Hg (1025.0 mb)
Winds: from the WSW (240 degrees) at 12 MPH (10 knots; 5.1 m/s)
Visibility: 6 or more miles (10+ km)
Ceiling: 4000 feet AGL
Clouds: scattered clouds at 2600 feet AGL
broken clouds at 4000 feet AGL
Weather: no significant weather observed at this time

METAR text: ZPPP 010500Z 23004MPS 190V270 9999 SCT026 BKN040 13/05 Q1026 NOSIG
Conditions at: ZPPP (KUNMING/WUJIABA , CN) observed 0500 UTC 01 December 2021
Temperature: 13.0°C (55°F)
Dewpoint: 5.0°C (41°F) [RH = 58%]
Pressure (altimeter): 30.30 inches Hg (1026.0 mb)
Winds: from the SW (230 degrees) at 9 MPH (8 knots; 4.1 m/s)
Visibility: 6 or more miles (10+ km)
Ceiling: 4000 feet AGL
Clouds: scattered clouds at 2600 feet AGL
broken clouds at 4000 feet AGL
Weather: no significant weather observed at this time

METAR text: ZPPP 010400Z 22005MPS 9999 SCT026 13/05 Q1028 NOSIG
Conditions at: ZPPP (KUNMING/WUJIABA , CN) observed 0400 UTC 01 December 2021
Temperature: 13.0°C (55°F)
Dewpoint: 5.0°C (41°F) [RH = 58%]
Pressure (altimeter): 30.35 inches Hg (1028.0 mb)
Winds: from the SW (220 degrees) at 12 MPH (10 knots; 5.1 m/s)
Visibility: 6 or more miles (10+ km)
Ceiling: at least 12,000 feet AGL
Clouds: scattered clouds at 2600 feet AGL
Weather: no significant weather observed at this time

METAR text: ZPPP 010300Z 22003MPS 130V260 9999 FEW026 11/05 Q1029 NOSIG
Conditions at: ZPPP (KUNMING/WUJIABA , CN) observed 0300 UTC 01 December 2021
Temperature: 11.0°C (52°F)
Dewpoint: 5.0°C (41°F) [RH = 66%]
Pressure (altimeter): 30.38 inches Hg (1029.0 mb)
Winds: from the SW (220 degrees) at 7 MPH (6 knots; 3.1 m/s)
Visibility: 6 or more miles (10+ km)
Ceiling: at least 12,000 feet AGL
Clouds: few clouds at 2600 feet AGL
Weather: no significant weather observed at this time

METAR text: ZPPP 010200Z VRB01MPS 9999 BKN046 09/04 Q1029 NOSIG
Conditions at: ZPPP (KUNMING/WUJIABA , CN) observed 0200 UTC 01 December 2021
Temperature: 9.0°C (48°F)
Dewpoint: 4.0°C (39°F) [RH = 71%]
Pressure (altimeter): 30.38 inches Hg (1029.0 mb)
Winds: variable direction winds at 2 MPH (2 knots; 1.0 m/s)
Visibility: 6 or more miles (10+ km)
Ceiling: 4600 feet AGL
Clouds: broken clouds at 4600 feet AGL
Weather: no significant weather observed at this time

METAR text: ZPPP 010100Z 25002MPS 220V280 9999 OVC046 07/03 Q1028 NOSIG
Conditions at: ZPPP (KUNMING/WUJIABA , CN) observed 0100 UTC 01 December 2021
Temperature: 7.0°C (45°F)
Dewpoint: 3.0°C (37°F) [RH = 76%]
Pressure (altimeter): 30.35 inches Hg (1028.0 mb)
Winds: from the WSW (250 degrees) at 5 MPH (4 knots; 2.1 m/s)
Visibility: 6 or more miles (10+ km)
Ceiling: 4600 feet AGL
Clouds: overcast cloud deck at 4600 feet AGL
Weather: no significant weather observed at this time

METAR text: ZPPP 010000Z 24003MPS 9999 OVC046 07/03 Q1028 NOSIG
Conditions at: ZPPP (KUNMING/WUJIABA , CN) observed 0000 UTC 01 December 2021
Temperature: 7.0°C (45°F)
Dewpoint: 3.0°C (37°F) [RH = 76%]
Pressure (altimeter): 30.35 inches Hg (1028.0 mb)
Winds: from the WSW (240 degrees) at 7 MPH (6 knots; 3.1 m/s)
Visibility: 6 or more miles (10+ km)
Ceiling: 4600 feet AGL
Clouds: overcast cloud deck at 4600 feet AGL
Weather: no significant weather observed at this time

METAR text: ZPPP 302300Z 21003MPS 9999 BKN046 06/03 Q1027 NOSIG
Conditions at: ZPPP (KUNMING/WUJIABA , CN) observed 2300 UTC 30 November 2021
Temperature: 6.0°C (43°F)
Dewpoint: 3.0°C (37°F) [RH = 81%]
Pressure (altimeter): 30.32 inches Hg (1027.0 mb)
Winds: from the SSW (210 degrees) at 7 MPH (6 knots; 3.1 m/s)
Visibility: 6 or more miles (10+ km)
Ceiling: 4600 feet AGL
Clouds: broken clouds at 4600 feet AGL
Weather: no significant weather observed at this time

METAR text: ZPPP 302200Z 21003MPS 9999 BKN046 06/03 Q1027 NOSIG
Conditions at: ZPPP (KUNMING/WUJIABA , CN) observed 2200 UTC 30 November 2021
Temperature: 6.0°C (43°F)
Dewpoint: 3.0°C (37°F) [RH = 81%]
Pressure (altimeter): 30.32 inches Hg (1027.0 mb)
Winds: from the SSW (210 degrees) at 7 MPH (6 knots; 3.1 m/s)
Visibility: 6 or more miles (10+ km)
Ceiling: 4600 feet AGL
Clouds: broken clouds at 4600 feet AGL
Weather: no significant weather observed at this time

METAR text: ZPPP 302100Z 23002MPS 9999 BKN046 06/04 Q1027 NOSIG
Conditions at: ZPPP (KUNMING/WUJIABA , CN) observed 2100 UTC 30 November 2021
Temperature: 6.0°C (43°F)
Dewpoint: 4.0°C (39°F) [RH = 87%]
Pressure (altimeter): 30.32 inches Hg (1027.0 mb)
Winds: from the SW (230 degrees) at 5 MPH (4 knots; 2.1 m/s)
Visibility: 6 or more miles (10+ km)
Ceiling: 4600 feet AGL
Clouds: broken clouds at 4600 feet AGL
Weather: no significant weather observed at this time

METAR text: ZPPP 302000Z 00000MPS 9999 BKN043 06/04 Q1027 NOSIG
Conditions at: ZPPP (KUNMING/WUJIABA , CN) observed 2000 UTC 30 November 2021
Temperature: 6.0°C (43°F)
Dewpoint: 4.0°C (39°F) [RH = 87%]
Pressure (altimeter): 30.32 inches Hg (1027.0 mb)
Winds: calm
Visibility: 6 or more miles (10+ km)
Ceiling: 4300 feet AGL
Clouds: broken clouds at 4300 feet AGL
Weather: no significant weather observed at this time

METAR text: ZPPP 301900Z 20001MPS 9999 BKN043 06/03 Q1028 NOSIG
Conditions at: ZPPP (KUNMING/WUJIABA , CN) observed 1900 UTC 30 November 2021
Temperature: 6.0°C (43°F)
Dewpoint: 3.0°C (37°F) [RH = 81%]
Pressure (altimeter): 30.35 inches Hg (1028.0 mb)
Winds: from the SSW (200 degrees) at 2 MPH (2 knots; 1.0 m/s)
Visibility: 6 or more miles (10+ km)
Ceiling: 4300 feet AGL
Clouds: broken clouds at 4300 feet AGL
Weather: no significant weather observed at this time

METAR text: ZPPP 301800Z 22003MPS 9999 BKN043 06/03 Q1028 NOSIG
Conditions at: ZPPP (KUNMING/WUJIABA , CN) observed 1800 UTC 30 November 2021
Temperature: 6.0°C (43°F)
Dewpoint: 3.0°C (37°F) [RH = 81%]
Pressure (altimeter): 30.35 inches Hg (1028.0 mb)
Winds: from the SW (220 degrees) at 7 MPH (6 knots; 3.1 m/s)
Visibility: 6 or more miles (10+ km)
Ceiling: 4300 feet AGL
Clouds: broken clouds at 4300 feet AGL
Weather: no significant weather observed at this time

METAR text: ZPPP 301700Z 21003MPS 9999 BKN040 05/02 Q1028 NOSIG
Conditions at: ZPPP (KUNMING/WUJIABA , CN) observed 1700 UTC 30 November 2021
Temperature: 5.0°C (41°F)
Dewpoint: 2.0°C (36°F) [RH = 81%]
Pressure (altimeter): 30.35 inches Hg (1028.0 mb)
Winds: from the SSW (210 degrees) at 7 MPH (6 knots; 3.1 m/s)
Visibility: 6 or more miles (10+ km)
Ceiling: 4000 feet AGL
Clouds: broken clouds at 4000 feet AGL
Weather: no significant weather observed at this time

METAR text: ZPPP 301600Z 21003MPS 9999 SCT040 05/02 Q1028 NOSIG
Conditions at: ZPPP (KUNMING/WUJIABA , CN) observed 1600 UTC 30 November 2021
Temperature: 5.0°C (41°F)
Dewpoint: 2.0°C (36°F) [RH = 81%]
Pressure (altimeter): 30.35 inches Hg (1028.0 mb)
Winds: from the SSW (210 degrees) at 7 MPH (6 knots; 3.1 m/s)
Visibility: 6 or more miles (10+ km)
Ceiling: at least 12,000 feet AGL
Clouds: scattered clouds at 4000 feet AGL
Weather: no significant weather observed at this time

METAR text: ZPPP 301500Z 21002MPS 9999 SCT040 05/02 Q1028 NOSIG
Conditions at: ZPPP (KUNMING/WUJIABA , CN) observed 1500 UTC 30 November 2021
Temperature: 5.0°C (41°F)
Dewpoint: 2.0°C (36°F) [RH = 81%]
Pressure (altimeter): 30.35 inches Hg (1028.0 mb)
Winds: from the SSW (210 degrees) at 5 MPH (4 knots; 2.1 m/s)
Visibility: 6 or more miles (10+ km)
Ceiling: at least 12,000 feet AGL
Clouds: scattered clouds at 4000 feet AGL
Weather: no significant weather observed at this time

METAR text: ZPPP 301400Z 00000MPS CAVOK 04/01 Q1028 NOSIG
Conditions at: ZPPP (KUNMING/WUJIABA , CN) observed 1400 UTC 30 November 2021
Temperature: 4.0°C (39°F)
Dewpoint: 1.0°C (34°F) [RH = 81%]
Pressure (altimeter): 30.35 inches Hg (1028.0 mb)
Winds: calm
Visibility: 6 or more miles (10+ km)
Ceiling: ceiling and visibility are OK
Clouds: unknown
Weather: no significant weather observed at this time

METAR text: ZPPP 301300Z VRB01MPS CAVOK 06/00 Q1028 NOSIG
Conditions at: ZPPP (KUNMING/WUJIABA , CN) observed 1300 UTC 30 November 2021
Temperature: 6.0°C (43°F)
Dewpoint: 0.0°C (32°F) [RH = 65%]
Pressure (altimeter): 30.35 inches Hg (1028.0 mb)
Winds: variable direction winds at 2 MPH (2 knots; 1.0 m/s)
Visibility: 6 or more miles (10+ km)
Ceiling: ceiling and visibility are OK
Clouds: unknown
Weather: no significant weather observed at this time

METAR text: ZPPP 301200Z 17002MPS 9999 SCT046 07/00 Q1028 NOSIG
Conditions at: ZPPP (KUNMING/WUJIABA , CN) observed 1200 UTC 30 November 2021
Temperature: 7.0°C (45°F)
Dewpoint: 0.0°C (32°F) [RH = 61%]
Pressure (altimeter): 30.35 inches Hg (1028.0 mb)
Winds: from the S (170 degrees) at 5 MPH (4 knots; 2.1 m/s)
Visibility: 6 or more miles (10+ km)
Ceiling: at least 12,000 feet AGL
Clouds: scattered clouds at 4600 feet AGL
Weather: no significant weather observed at this time

METAR text: ZPPP 301100Z 20002MPS 9999 BKN046 08/01 Q1027 NOSIG
Conditions at: ZPPP (KUNMING/WUJIABA , CN) observed 1100 UTC 30 November 2021
Temperature: 8.0°C (46°F)
Dewpoint: 1.0°C (34°F) [RH = 61%]
Pressure (altimeter): 30.32 inches Hg (1027.0 mb)
Winds: from the SSW (200 degrees) at 5 MPH (4 knots; 2.1 m/s)
Visibility: 6 or more miles (10+ km)
Ceiling: 4600 feet AGL
Clouds: broken clouds at 4600 feet AGL
Weather: no significant weather observed at this time

METAR text: ZPPP 301000Z 18002MPS 140V210 9999 BKN046 11/M00 Q1027 NOSIG
Conditions at: ZPPP (KUNMING/WUJIABA , CN) observed 1000 UTC 30 November 2021
Temperature: 11.0°C (52°F)
Dewpoint: 0.0°C (32°F) [RH = 47%]
Pressure (altimeter): 30.32 inches Hg (1027.0 mb)
Winds: from the S (180 degrees) at 5 MPH (4 knots; 2.1 m/s)
Visibility: 6 or more miles (10+ km)
Ceiling: 4600 feet AGL
Clouds: broken clouds at 4600 feet AGL
Weather: no significant weather observed at this time

Forecast for: ZPPP (KUNMING/WUJIABA , CN)
Text: TAF ZPPP 011510Z 0118/0218 04004MPS 9999 SCT020 BKN033 TX11/0208Z TN05/0123Z
Forecast period: 1800 UTC 01 December 2021 to 1800 UTC 02 December 2021
Forecast type: FROM: standard forecast or significant change
Winds: from the NE (40 degrees) at 9 MPH (8 knots; 4.1 m/s)
Visibility: 6 or more miles (10+ km)
Ceiling: 3300 feet AGL
Clouds: scattered clouds at 2000 feet AGL
broken clouds at 3300 feet AGL
Weather: no significant weather forecast for this period